sensor_id;sensor_type;location;lat;lon;timestamp;temperature;humidity
22645;DHT22;11489;50.834;6.752;2022-07-23T00:00:31;18.80;79.90
22645;DHT22;11489;50.834;6.752;2022-07-23T00:02:57;18.80;80.20
22645;DHT22;11489;50.834;6.752;2022-07-23T00:05:23;18.70;80.40
22645;DHT22;11489;50.834;6.752;2022-07-23T00:07:48;18.70;80.50
22645;DHT22;11489;50.834;6.752;2022-07-23T00:10:14;18.60;80.60
22645;DHT22;11489;50.834;6.752;2022-07-23T00:12:40;18.60;80.70
22645;DHT22;11489;50.834;6.752;2022-07-23T00:15:07;18.50;80.90
22645;DHT22;11489;50.834;6.752;2022-07-23T00:17:33;18.50;80.90
22645;DHT22;11489;50.834;6.752;2022-07-23T00:19:59;18.40;81.10
22645;DHT22;11489;50.834;6.752;2022-07-23T00:22:25;18.40;81.30
22645;DHT22;11489;50.834;6.752;2022-07-23T00:24:50;18.30;81.50
22645;DHT22;11489;50.834;6.752;2022-07-23T00:27:16;18.30;81.50
22645;DHT22;11489;50.834;6.752;2022-07-23T00:29:42;18.20;81.50
22645;DHT22;11489;50.834;6.752;2022-07-23T00:32:07;18.20;82.40
22645;DHT22;11489;50.834;6.752;2022-07-23T00:34:33;18.10;81.80
22645;DHT22;11489;50.834;6.752;2022-07-23T00:36:59;18.10;82.00
22645;DHT22;11489;50.834;6.752;2022-07-23T00:39:24;18.10;82.20
22645;DHT22;11489;50.834;6.752;2022-07-23T00:41:51;18.00;82.30
22645;DHT22;11489;50.834;6.752;2022-07-23T00:46:53;17.90;82.50
22645;DHT22;11489;50.834;6.752;2022-07-23T00:49:20;17.90;82.50
22645;DHT22;11489;50.834;6.752;2022-07-23T00:51:47;17.90;82.70
22645;DHT22;11489;50.834;6.752;2022-07-23T00:54:14;17.80;82.70
22645;DHT22;11489;50.834;6.752;2022-07-23T00:56:41;17.80;82.70
22645;DHT22;11489;50.834;6.752;2022-07-23T00:59:07;17.80;82.90
22645;DHT22;11489;50.834;6.752;2022-07-23T01:01:33;17.80;83.60
22645;DHT22;11489;50.834;6.752;2022-07-23T01:03:59;17.80;83.00
22645;DHT22;11489;50.834;6.752;2022-07-23T01:06:24;17.70;83.10
22645;DHT22;11489;50.834;6.752;2022-07-23T01:08:50;17.80;83.30
22645;DHT22;11489;50.834;6.752;2022-07-23T01:11:17;17.70;83.20
22645;DHT22;11489;50.834;6.752;2022-07-23T01:13:43;17.70;83.30
22645;DHT22;11489;50.834;6.752;2022-07-23T01:16:09;17.70;83.40
22645;DHT22;11489;50.834;6.752;2022-07-23T01:18:35;17.70;83.40
22645;DHT22;11489;50.834;6.752;2022-07-23T01:21:01;17.70;83.40
22645;DHT22;11489;50.834;6.752;2022-07-23T01:23:26;17.70;83.30
22645;DHT22;11489;50.834;6.752;2022-07-23T01:25:53;17.60;83.10
22645;DHT22;11489;50.834;6.752;2022-07-23T01:28:19;17.60;83.10
22645;DHT22;11489;50.834;6.752;2022-07-23T01:30:45;17.60;83.20
22645;DHT22;11489;50.834;6.752;2022-07-23T01:33:11;17.50;83.10
22645;DHT22;11489;50.834;6.752;2022-07-23T01:35:37;17.40;82.60
22645;DHT22;11489;50.834;6.752;2022-07-23T01:38:02;17.30;82.90
22645;DHT22;11489;50.834;6.752;2022-07-23T01:40:28;17.20;83.40
22645;DHT22;11489;50.834;6.752;2022-07-23T01:42:54;17.10;83.60
22645;DHT22;11489;50.834;6.752;2022-07-23T01:45:19;17.00;83.80
22645;DHT22;11489;50.834;6.752;2022-07-23T01:47:45;16.90;84.10
22645;DHT22;11489;50.834;6.752;2022-07-23T01:50:11;16.80;84.50
22645;DHT22;11489;50.834;6.752;2022-07-23T01:52:37;16.70;84.80
22645;DHT22;11489;50.834;6.752;2022-07-23T01:55:03;16.60;85.20
22645;DHT22;11489;50.834;6.752;2022-07-23T01:57:29;16.60;85.60
22645;DHT22;11489;50.834;6.752;2022-07-23T01:59:54;16.50;85.90
22645;DHT22;11489;50.834;6.752;2022-07-23T02:02:20;16.40;86.10
22645;DHT22;11489;50.834;6.752;2022-07-23T02:04:46;16.40;86.10
22645;DHT22;11489;50.834;6.752;2022-07-23T02:07:11;16.40;86.30
22645;DHT22;11489;50.834;6.752;2022-07-23T02:09:37;16.30;86.50
22645;DHT22;11489;50.834;6.752;2022-07-23T02:12:03;16.30;86.80
22645;DHT22;11489;50.834;6.752;2022-07-23T02:14:29;16.20;87.00
22645;DHT22;11489;50.834;6.752;2022-07-23T02:16:54;16.20;87.10
22645;DHT22;11489;50.834;6.752;2022-07-23T02:19:20;16.20;87.30
22645;DHT22;11489;50.834;6.752;2022-07-23T02:21:46;16.10;87.40
22645;DHT22;11489;50.834;6.752;2022-07-23T02:24:12;16.10;87.60
22645;DHT22;11489;50.834;6.752;2022-07-23T02:26:37;16.10;87.80
22645;DHT22;11489;50.834;6.752;2022-07-23T02:29:04;16.00;87.90
22645;DHT22;11489;50.834;6.752;2022-07-23T02:31:30;16.00;88.00
22645;DHT22;11489;50.834;6.752;2022-07-23T02:33:56;16.00;88.20
22645;DHT22;11489;50.834;6.752;2022-07-23T02:36:23;16.00;88.20
22645;DHT22;11489;50.834;6.752;2022-07-23T02:38:49;15.90;88.20
22645;DHT22;11489;50.834;6.752;2022-07-23T02:41:15;15.90;88.30
22645;DHT22;11489;50.834;6.752;2022-07-23T02:43:40;15.90;88.40
22645;DHT22;11489;50.834;6.752;2022-07-23T02:46:06;15.80;88.50
22645;DHT22;11489;50.834;6.752;2022-07-23T02:48:31;15.80;88.50
22645;DHT22;11489;50.834;6.752;2022-07-23T02:50:57;15.80;88.70
22645;DHT22;11489;50.834;6.752;2022-07-23T02:53:23;15.70;88.80
22645;DHT22;11489;50.834;6.752;2022-07-23T02:55:52;15.70;88.90
22645;DHT22;11489;50.834;6.752;2022-07-23T02:58:17;15.70;89.10
22645;DHT22;11489;50.834;6.752;2022-07-23T03:00:43;15.70;89.20
22645;DHT22;11489;50.834;6.752;2022-07-23T03:03:09;15.60;89.30
22645;DHT22;11489;50.834;6.752;2022-07-23T03:05:35;15.60;89.50
22645;DHT22;11489;50.834;6.752;2022-07-23T03:08:01;15.60;89.60
22645;DHT22;11489;50.834;6.752;2022-07-23T03:10:27;15.50;89.60
22645;DHT22;11489;50.834;6.752;2022-07-23T03:12:52;15.50;89.70
22645;DHT22;11489;50.834;6.752;2022-07-23T03:15:18;15.50;89.80
22645;DHT22;11489;50.834;6.752;2022-07-23T03:17:45;15.50;89.90
22645;DHT22;11489;50.834;6.752;2022-07-23T03:20:10;15.40;89.90
22645;DHT22;11489;50.834;6.752;2022-07-23T03:22:36;15.40;90.00
22645;DHT22;11489;50.834;6.752;2022-07-23T03:25:02;15.40;90.00
22645;DHT22;11489;50.834;6.752;2022-07-23T03:27:29;15.40;90.00
22645;DHT22;11489;50.834;6.752;2022-07-23T03:29:58;15.30;90.10
22645;DHT22;11489;50.834;6.752;2022-07-23T03:32:24;15.30;90.10
22645;DHT22;11489;50.834;6.752;2022-07-23T03:34:50;15.30;90.10
22645;DHT22;11489;50.834;6.752;2022-07-23T03:37:17;15.20;90.20
22645;DHT22;11489;50.834;6.752;2022-07-23T03:39:43;15.20;90.30
22645;DHT22;11489;50.834;6.752;2022-07-23T03:42:09;15.20;90.30
22645;DHT22;11489;50.834;6.752;2022-07-23T03:44:35;15.20;90.40
22645;DHT22;11489;50.834;6.752;2022-07-23T03:47:03;15.20;90.40
22645;DHT22;11489;50.834;6.752;2022-07-23T03:49:29;15.20;90.50
22645;DHT22;11489;50.834;6.752;2022-07-23T03:51:54;15.10;90.50
22645;DHT22;11489;50.834;6.752;2022-07-23T03:54:20;15.10;90.50
22645;DHT22;11489;50.834;6.752;2022-07-23T03:56:46;15.10;90.50
22645;DHT22;11489;50.834;6.752;2022-07-23T03:59:12;15.10;90.60
22645;DHT22;11489;50.834;6.752;2022-07-23T04:01:38;15.10;90.60
22645;DHT22;11489;50.834;6.752;2022-07-23T04:04:03;15.10;90.80
22645;DHT22;11489;50.834;6.752;2022-07-23T04:06:29;15.10;91.10
22645;DHT22;11489;50.834;6.752;2022-07-23T04:08:55;15.10;90.90
22645;DHT22;11489;50.834;6.752;2022-07-23T04:11:21;15.10;91.00
22645;DHT22;11489;50.834;6.752;2022-07-23T04:13:46;15.10;91.00
22645;DHT22;11489;50.834;6.752;2022-07-23T04:16:12;15.10;91.20
22645;DHT22;11489;50.834;6.752;2022-07-23T04:18:38;15.20;91.20
22645;DHT22;11489;50.834;6.752;2022-07-23T04:21:03;15.20;91.20
22645;DHT22;11489;50.834;6.752;2022-07-23T04:23:29;15.30;91.30
22645;DHT22;11489;50.834;6.752;2022-07-23T04:25:55;15.30;91.30
22645;DHT22;11489;50.834;6.752;2022-07-23T04:28:21;15.40;91.40
22645;DHT22;11489;50.834;6.752;2022-07-23T04:30:46;15.40;91.50
22645;DHT22;11489;50.834;6.752;2022-07-23T04:33:12;15.50;91.60
22645;DHT22;11489;50.834;6.752;2022-07-23T04:35:37;15.60;91.80
22645;DHT22;11489;50.834;6.752;2022-07-23T04:38:03;15.70;91.90
22645;DHT22;11489;50.834;6.752;2022-07-23T04:40:29;15.90;92.00
22645;DHT22;11489;50.834;6.752;2022-07-23T04:42:55;16.00;91.90
22645;DHT22;11489;50.834;6.752;2022-07-23T04:45:21;16.10;91.80
22645;DHT22;11489;50.834;6.752;2022-07-23T04:47:49;16.20;91.50
22645;DHT22;11489;50.834;6.752;2022-07-23T04:50:14;16.30;91.20
22645;DHT22;11489;50.834;6.752;2022-07-23T04:52:44;16.30;90.90
22645;DHT22;11489;50.834;6.752;2022-07-23T04:55:10;16.30;90.80
22645;DHT22;11489;50.834;6.752;2022-07-23T04:57:36;16.30;90.60
22645;DHT22;11489;50.834;6.752;2022-07-23T05:00:03;16.20;90.60
22645;DHT22;11489;50.834;6.752;2022-07-23T05:02:29;16.20;90.70
22645;DHT22;11489;50.834;6.752;2022-07-23T05:04:54;16.20;90.70
22645;DHT22;11489;50.834;6.752;2022-07-23T05:07:20;16.30;90.90
22645;DHT22;11489;50.834;6.752;2022-07-23T05:09:46;16.20;91.00
22645;DHT22;11489;50.834;6.752;2022-07-23T05:12:12;16.20;91.10
22645;DHT22;11489;50.834;6.752;2022-07-23T05:14:37;16.30;91.20
22645;DHT22;11489;50.834;6.752;2022-07-23T05:17:03;16.30;91.20
22645;DHT22;11489;50.834;6.752;2022-07-23T05:19:29;16.30;91.40
22645;DHT22;11489;50.834;6.752;2022-07-23T05:21:54;16.30;91.50
22645;DHT22;11489;50.834;6.752;2022-07-23T05:24:20;16.40;91.60
22645;DHT22;11489;50.834;6.752;2022-07-23T05:26:46;16.50;91.60
22645;DHT22;11489;50.834;6.752;2022-07-23T05:29:11;16.50;91.50
22645;DHT22;11489;50.834;6.752;2022-07-23T05:31:37;16.60;91.60
22645;DHT22;11489;50.834;6.752;2022-07-23T05:34:03;16.60;91.70
22645;DHT22;11489;50.834;6.752;2022-07-23T05:36:31;16.70;92.00
22645;DHT22;11489;50.834;6.752;2022-07-23T05:38:56;16.80;91.80
22645;DHT22;11489;50.834;6.752;2022-07-23T05:41:22;16.80;91.70
22645;DHT22;11489;50.834;6.752;2022-07-23T05:43:48;16.90;91.60
22645;DHT22;11489;50.834;6.752;2022-07-23T05:46:13;17.00;91.50
22645;DHT22;11489;50.834;6.752;2022-07-23T05:48:39;17.00;91.30
22645;DHT22;11489;50.834;6.752;2022-07-23T05:51:05;17.10;91.30
22645;DHT22;11489;50.834;6.752;2022-07-23T05:53:33;17.10;91.30
22645;DHT22;11489;50.834;6.752;2022-07-23T05:55:58;17.10;91.30
22645;DHT22;11489;50.834;6.752;2022-07-23T05:58:24;17.20;91.40
22645;DHT22;11489;50.834;6.752;2022-07-23T06:00:50;17.30;91.50
22645;DHT22;11489;50.834;6.752;2022-07-23T06:03:15;17.30;91.50
22645;DHT22;11489;50.834;6.752;2022-07-23T06:05:41;17.30;91.30
22645;DHT22;11489;50.834;6.752;2022-07-23T06:08:07;17.40;91.20
22645;DHT22;11489;50.834;6.752;2022-07-23T06:10:32;17.40;91.00
22645;DHT22;11489;50.834;6.752;2022-07-23T06:12:58;17.50;91.00
22645;DHT22;11489;50.834;6.752;2022-07-23T06:15:24;17.40;90.90
22645;DHT22;11489;50.834;6.752;2022-07-23T06:17:49;17.40;90.90
22645;DHT22;11489;50.834;6.752;2022-07-23T06:20:15;17.50;91.00
22645;DHT22;11489;50.834;6.752;2022-07-23T06:22:40;17.50;91.10
22645;DHT22;11489;50.834;6.752;2022-07-23T06:25:07;17.50;91.20
22645;DHT22;11489;50.834;6.752;2022-07-23T06:27:33;17.50;91.30
22645;DHT22;11489;50.834;6.752;2022-07-23T06:29:58;17.60;91.40
22645;DHT22;11489;50.834;6.752;2022-07-23T06:32:24;17.60;91.40
22645;DHT22;11489;50.834;6.752;2022-07-23T06:34:50;17.70;91.30
22645;DHT22;11489;50.834;6.752;2022-07-23T06:37:16;17.70;91.30
22645;DHT22;11489;50.834;6.752;2022-07-23T06:39:42;17.80;91.30
22645;DHT22;11489;50.834;6.752;2022-07-23T06:42:07;17.80;91.30
22645;DHT22;11489;50.834;6.752;2022-07-23T06:44:33;17.90;91.40
22645;DHT22;11489;50.834;6.752;2022-07-23T06:46:59;18.00;91.30
22645;DHT22;11489;50.834;6.752;2022-07-23T06:49:24;18.00;91.20
22645;DHT22;11489;50.834;6.752;2022-07-23T06:51:50;18.00;91.10
22645;DHT22;11489;50.834;6.752;2022-07-23T06:54:16;18.00;91.10
22645;DHT22;11489;50.834;6.752;2022-07-23T06:56:41;18.10;91.20
22645;DHT22;11489;50.834;6.752;2022-07-23T06:59:08;18.20;91.30
22645;DHT22;11489;50.834;6.752;2022-07-23T07:01:34;18.30;91.30
22645;DHT22;11489;50.834;6.752;2022-07-23T07:04:00;18.30;91.40
22645;DHT22;11489;50.834;6.752;2022-07-23T07:06:25;18.50;91.40
22645;DHT22;11489;50.834;6.752;2022-07-23T07:08:51;18.60;91.30
22645;DHT22;11489;50.834;6.752;2022-07-23T07:11:17;18.60;91.10
22645;DHT22;11489;50.834;6.752;2022-07-23T07:13:42;18.70;91.00
22645;DHT22;11489;50.834;6.752;2022-07-23T07:16:08;18.80;91.10
22645;DHT22;11489;50.834;6.752;2022-07-23T07:18:34;18.90;91.00
22645;DHT22;11489;50.834;6.752;2022-07-23T07:20:59;19.00;90.80
22645;DHT22;11489;50.834;6.752;2022-07-23T07:23:25;19.20;90.70
22645;DHT22;11489;50.834;6.752;2022-07-23T07:25:51;19.30;90.70
22645;DHT22;11489;50.834;6.752;2022-07-23T07:28:16;19.30;90.30
22645;DHT22;11489;50.834;6.752;2022-07-23T07:30:42;19.40;90.00
22645;DHT22;11489;50.834;6.752;2022-07-23T07:33:07;19.30;89.20
22645;DHT22;11489;50.834;6.752;2022-07-23T07:35:33;19.30;89.00
22645;DHT22;11489;50.834;6.752;2022-07-23T07:37:59;19.40;89.30
22645;DHT22;11489;50.834;6.752;2022-07-23T07:40:26;19.40;89.30
22645;DHT22;11489;50.834;6.752;2022-07-23T07:42:53;19.40;89.10
22645;DHT22;11489;50.834;6.752;2022-07-23T07:45:21;19.30;89.20
22645;DHT22;11489;50.834;6.752;2022-07-23T07:47:47;19.40;89.50
22645;DHT22;11489;50.834;6.752;2022-07-23T07:50:13;19.40;90.00
22645;DHT22;11489;50.834;6.752;2022-07-23T07:52:39;19.50;90.00
22645;DHT22;11489;50.834;6.752;2022-07-23T07:55:06;19.60;90.10
22645;DHT22;11489;50.834;6.752;2022-07-23T07:57:33;19.70;90.40
22645;DHT22;11489;50.834;6.752;2022-07-23T07:59:58;19.90;90.50
22645;DHT22;11489;50.834;6.752;2022-07-23T08:02:24;20.10;90.40
22645;DHT22;11489;50.834;6.752;2022-07-23T08:04:50;20.20;90.40
22645;DHT22;11489;50.834;6.752;2022-07-23T08:07:16;20.40;90.40
22645;DHT22;11489;50.834;6.752;2022-07-23T08:09:42;20.50;90.40
22645;DHT22;11489;50.834;6.752;2022-07-23T08:12:08;20.70;90.30
22645;DHT22;11489;50.834;6.752;2022-07-23T08:14:33;20.90;89.90
22645;DHT22;11489;50.834;6.752;2022-07-23T08:16:59;21.00;89.00
22645;DHT22;11489;50.834;6.752;2022-07-23T08:19:25;21.00;88.70
22645;DHT22;11489;50.834;6.752;2022-07-23T08:21:51;21.10;88.20
22645;DHT22;11489;50.834;6.752;2022-07-23T08:24:16;21.10;87.50
22645;DHT22;11489;50.834;6.752;2022-07-23T08:26:42;21.10;86.60
22645;DHT22;11489;50.834;6.752;2022-07-23T08:29:08;21.10;85.60
22645;DHT22;11489;50.834;6.752;2022-07-23T08:31:33;21.00;85.40
22645;DHT22;11489;50.834;6.752;2022-07-23T08:33:59;21.00;86.40
22645;DHT22;11489;50.834;6.752;2022-07-23T08:36:25;21.00;87.70
22645;DHT22;11489;50.834;6.752;2022-07-23T08:38:58;21.10;88.30
22645;DHT22;11489;50.834;6.752;2022-07-23T08:41:24;21.10;86.20
22645;DHT22;11489;50.834;6.752;2022-07-23T08:43:50;21.20;84.20
22645;DHT22;11489;50.834;6.752;2022-07-23T08:46:17;21.10;85.00
22645;DHT22;11489;50.834;6.752;2022-07-23T08:48:48;21.20;86.10
22645;DHT22;11489;50.834;6.752;2022-07-23T08:51:14;21.30;86.50
22645;DHT22;11489;50.834;6.752;2022-07-23T08:53:41;21.40;87.00
22645;DHT22;11489;50.834;6.752;2022-07-23T08:56:07;21.50;84.90
22645;DHT22;11489;50.834;6.752;2022-07-23T08:58:33;21.50;83.60
22645;DHT22;11489;50.834;6.752;2022-07-23T09:01:00;21.50;83.50
22645;DHT22;11489;50.834;6.752;2022-07-23T09:03:29;21.60;83.90
22645;DHT22;11489;50.834;6.752;2022-07-23T09:05:55;21.60;84.70
22645;DHT22;11489;50.834;6.752;2022-07-23T09:08:37;21.80;84.60
22645;DHT22;11489;50.834;6.752;2022-07-23T09:11:06;21.90;83.10
22645;DHT22;11489;50.834;6.752;2022-07-23T09:13:42;22.00;83.90
22645;DHT22;11489;50.834;6.752;2022-07-23T09:16:16;22.10;83.20
22645;DHT22;11489;50.834;6.752;2022-07-23T09:18:54;22.30;83.00
22645;DHT22;11489;50.834;6.752;2022-07-23T09:32:00;23.10;81.30
22645;DHT22;11489;50.834;6.752;2022-07-23T09:34:32;23.30;80.30
22645;DHT22;11489;50.834;6.752;2022-07-23T09:37:13;23.50;81.50
22645;DHT22;11489;50.834;6.752;2022-07-23T09:39:40;23.60;78.60
22645;DHT22;11489;50.834;6.752;2022-07-23T09:42:21;23.80;80.20
22645;DHT22;11489;50.834;6.752;2022-07-23T09:44:49;23.90;79.80
22645;DHT22;11489;50.834;6.752;2022-07-23T09:47:15;24.00;79.80
22645;DHT22;11489;50.834;6.752;2022-07-23T09:50:01;24.00;80.10
22645;DHT22;11489;50.834;6.752;2022-07-23T09:52:35;24.20;78.00
22645;DHT22;11489;50.834;6.752;2022-07-23T09:55:03;24.40;80.10
22645;DHT22;11489;50.834;6.752;2022-07-23T09:57:31;24.60;80.70
22645;DHT22;11489;50.834;6.752;2022-07-23T10:00:00;24.80;78.70
22645;DHT22;11489;50.834;6.752;2022-07-23T10:02:28;25.00;77.50
22645;DHT22;11489;50.834;6.752;2022-07-23T10:04:57;25.10;78.00
22645;DHT22;11489;50.834;6.752;2022-07-23T10:07:25;25.20;78.10
22645;DHT22;11489;50.834;6.752;2022-07-23T10:09:52;25.40;78.00
22645;DHT22;11489;50.834;6.752;2022-07-23T10:12:19;25.60;78.70
22645;DHT22;11489;50.834;6.752;2022-07-23T10:14:49;25.90;77.30
22645;DHT22;11489;50.834;6.752;2022-07-23T10:17:15;26.00;75.90
22645;DHT22;11489;50.834;6.752;2022-07-23T10:19:41;26.10;74.10
22645;DHT22;11489;50.834;6.752;2022-07-23T10:22:09;26.10;73.30
22645;DHT22;11489;50.834;6.752;2022-07-23T10:25:04;26.10;72.50
22645;DHT22;11489;50.834;6.752;2022-07-23T10:27:45;26.10;70.00
22645;DHT22;11489;50.834;6.752;2022-07-23T10:35:53;26.30;74.00
22645;DHT22;11489;50.834;6.752;2022-07-23T10:41:34;26.70;71.40
22645;DHT22;11489;50.834;6.752;2022-07-23T10:46:52;27.00;70.10
22645;DHT22;11489;50.834;6.752;2022-07-23T10:49:27;27.10;73.40
22645;DHT22;11489;50.834;6.752;2022-07-23T10:52:18;27.30;71.10
22645;DHT22;11489;50.834;6.752;2022-07-23T10:55:38;27.30;69.80
22645;DHT22;11489;50.834;6.752;2022-07-23T10:57:50;27.40;71.60
22645;DHT22;11489;50.834;6.752;2022-07-23T11:00:24;27.50;69.10
22645;DHT22;11489;50.834;6.752;2022-07-23T11:02:52;27.70;70.80
22645;DHT22;11489;50.834;6.752;2022-07-23T11:05:20;28.10;73.20
22645;DHT22;11489;50.834;6.752;2022-07-23T11:10:39;28.40;68.10
22645;DHT22;11489;50.834;6.752;2022-07-23T11:16:17;28.60;66.00
22645;DHT22;11489;50.834;6.752;2022-07-23T11:24:09;29.20;67.60
22645;DHT22;11489;50.834;6.752;2022-07-23T11:26:54;29.20;62.80
22645;DHT22;11489;50.834;6.752;2022-07-23T11:32:18;28.90;62.30
22645;DHT22;11489;50.834;6.752;2022-07-23T11:34:46;28.80;61.00
22645;DHT22;11489;50.834;6.752;2022-07-23T11:37:33;28.80;65.80
22645;DHT22;11489;50.834;6.752;2022-07-23T11:40:07;28.90;61.90
22645;DHT22;11489;50.834;6.752;2022-07-23T11:42:35;29.10;66.80
22645;DHT22;11489;50.834;6.752;2022-07-23T11:45:01;29.20;64.00
22645;DHT22;11489;50.834;6.752;2022-07-23T11:47:27;29.20;63.00
22645;DHT22;11489;50.834;6.752;2022-07-23T11:49:55;29.10;63.20
22645;DHT22;11489;50.834;6.752;2022-07-23T11:52:21;29.10;63.00
22645;DHT22;11489;50.834;6.752;2022-07-23T11:57:24;29.20;62.00
22645;DHT22;11489;50.834;6.752;2022-07-23T11:59:55;29.30;63.80
22645;DHT22;11489;50.834;6.752;2022-07-23T12:02:21;29.30;63.70
22645;DHT22;11489;50.834;6.752;2022-07-23T12:04:50;29.30;63.20
22645;DHT22;11489;50.834;6.752;2022-07-23T12:07:31;29.30;62.60
22645;DHT22;11489;50.834;6.752;2022-07-23T12:10:00;29.30;60.60
22645;DHT22;11489;50.834;6.752;2022-07-23T12:12:26;29.30;63.00
22645;DHT22;11489;50.834;6.752;2022-07-23T12:14:57;29.20;59.80
22645;DHT22;11489;50.834;6.752;2022-07-23T12:17:28;29.10;58.90
22645;DHT22;11489;50.834;6.752;2022-07-23T12:19:57;28.90;59.70
22645;DHT22;11489;50.834;6.752;2022-07-23T12:22:25;28.70;60.80
22645;DHT22;11489;50.834;6.752;2022-07-23T12:25:06;28.70;61.90
22645;DHT22;11489;50.834;6.752;2022-07-23T12:27:32;28.60;57.80
22645;DHT22;11489;50.834;6.752;2022-07-23T12:29:57;28.50;57.90
22645;DHT22;11489;50.834;6.752;2022-07-23T12:32:25;28.40;59.30
22645;DHT22;11489;50.834;6.752;2022-07-23T12:35:03;28.20;59.90
22645;DHT22;11489;50.834;6.752;2022-07-23T12:37:38;28.10;58.60
22645;DHT22;11489;50.834;6.752;2022-07-23T12:40:35;28.10;60.90
22645;DHT22;11489;50.834;6.752;2022-07-23T12:43:04;28.20;58.60
22645;DHT22;11489;50.834;6.752;2022-07-23T12:45:53;28.40;63.20
22645;DHT22;11489;50.834;6.752;2022-07-23T12:48:36;28.60;62.00
22645;DHT22;11489;50.834;6.752;2022-07-23T12:51:14;28.60;59.80
22645;DHT22;11489;50.834;6.752;2022-07-23T12:53:45;28.80;60.50
22645;DHT22;11489;50.834;6.752;2022-07-23T12:56:12;28.90;61.00
22645;DHT22;11489;50.834;6.752;2022-07-23T13:01:07;29.10;60.70
22645;DHT22;11489;50.834;6.752;2022-07-23T13:03:40;29.20;61.10
22645;DHT22;11489;50.834;6.752;2022-07-23T13:06:09;29.40;61.40
22645;DHT22;11489;50.834;6.752;2022-07-23T13:08:37;29.50;60.90
22645;DHT22;11489;50.834;6.752;2022-07-23T13:11:04;29.70;61.30
22645;DHT22;11489;50.834;6.752;2022-07-23T13:13:32;29.90;60.70
22645;DHT22;11489;50.834;6.752;2022-07-23T13:15:59;30.10;60.60
22645;DHT22;11489;50.834;6.752;2022-07-23T13:18:26;30.30;59.50
22645;DHT22;11489;50.834;6.752;2022-07-23T13:20:52;30.30;58.60
22645;DHT22;11489;50.834;6.752;2022-07-23T13:23:18;30.40;58.60
22645;DHT22;11489;50.834;6.752;2022-07-23T13:25:45;30.40;57.10
22645;DHT22;11489;50.834;6.752;2022-07-23T13:28:12;30.30;57.70
22645;DHT22;11489;50.834;6.752;2022-07-23T13:30:39;30.20;58.00
22645;DHT22;11489;50.834;6.752;2022-07-23T13:33:04;30.20;56.40
22645;DHT22;11489;50.834;6.752;2022-07-23T13:35:31;30.00;56.60
22645;DHT22;11489;50.834;6.752;2022-07-23T13:37:57;29.90;56.60
22645;DHT22;11489;50.834;6.752;2022-07-23T13:40:22;29.80;56.90
22645;DHT22;11489;50.834;6.752;2022-07-23T13:42:48;29.80;57.50
22645;DHT22;11489;50.834;6.752;2022-07-23T13:45:14;29.90;58.10
22645;DHT22;11489;50.834;6.752;2022-07-23T13:47:39;30.00;58.60
22645;DHT22;11489;50.834;6.752;2022-07-23T13:50:05;30.20;59.00
22645;DHT22;11489;50.834;6.752;2022-07-23T13:52:31;30.30;57.70
22645;DHT22;11489;50.834;6.752;2022-07-23T13:55:05;30.30;56.80
22645;DHT22;11489;50.834;6.752;2022-07-23T13:57:31;30.30;54.80
22645;DHT22;11489;50.834;6.752;2022-07-23T13:59:57;30.20;54.90
22645;DHT22;11489;50.834;6.752;2022-07-23T14:02:23;30.10;55.70
22645;DHT22;11489;50.834;6.752;2022-07-23T14:04:49;30.00;55.60
22645;DHT22;11489;50.834;6.752;2022-07-23T14:07:15;29.90;55.20
22645;DHT22;11489;50.834;6.752;2022-07-23T14:09:41;29.80;55.60
22645;DHT22;11489;50.834;6.752;2022-07-23T14:12:07;29.70;55.70
22645;DHT22;11489;50.834;6.752;2022-07-23T14:14:33;29.70;56.70
22645;DHT22;11489;50.834;6.752;2022-07-23T14:16:59;29.60;56.20
22645;DHT22;11489;50.834;6.752;2022-07-23T14:19:25;29.60;56.00
22645;DHT22;11489;50.834;6.752;2022-07-23T14:21:51;29.60;56.50
22645;DHT22;11489;50.834;6.752;2022-07-23T14:24:17;29.70;56.50
22645;DHT22;11489;50.834;6.752;2022-07-23T14:26:42;29.80;56.50
22645;DHT22;11489;50.834;6.752;2022-07-23T14:29:08;29.90;57.20
22645;DHT22;11489;50.834;6.752;2022-07-23T14:31:34;30.00;56.70
22645;DHT22;11489;50.834;6.752;2022-07-23T14:34:01;30.00;56.40
22645;DHT22;11489;50.834;6.752;2022-07-23T14:36:26;30.10;56.00
22645;DHT22;11489;50.834;6.752;2022-07-23T14:38:52;30.10;56.50
22645;DHT22;11489;50.834;6.752;2022-07-23T14:41:18;30.20;56.50
22645;DHT22;11489;50.834;6.752;2022-07-23T14:43:44;30.30;55.80
22645;DHT22;11489;50.834;6.752;2022-07-23T14:46:11;30.30;55.10
22645;DHT22;11489;50.834;6.752;2022-07-23T14:48:38;30.30;55.20
22645;DHT22;11489;50.834;6.752;2022-07-23T14:51:03;30.40;55.10
22645;DHT22;11489;50.834;6.752;2022-07-23T14:53:30;30.40;54.50
22645;DHT22;11489;50.834;6.752;2022-07-23T14:55:56;30.30;54.00
22645;DHT22;11489;50.834;6.752;2022-07-23T14:58:25;30.30;54.40
22645;DHT22;11489;50.834;6.752;2022-07-23T15:00:51;30.30;54.00
22645;DHT22;11489;50.834;6.752;2022-07-23T15:03:17;30.30;54.10
22645;DHT22;11489;50.834;6.752;2022-07-23T15:05:43;30.30;54.00
22645;DHT22;11489;50.834;6.752;2022-07-23T15:08:09;30.30;54.20
22645;DHT22;11489;50.834;6.752;2022-07-23T15:10:35;30.40;54.30
22645;DHT22;11489;50.834;6.752;2022-07-23T15:13:00;30.30;54.00
22645;DHT22;11489;50.834;6.752;2022-07-23T15:15:26;30.30;53.80
22645;DHT22;11489;50.834;6.752;2022-07-23T15:17:52;30.30;54.10
22645;DHT22;11489;50.834;6.752;2022-07-23T15:20:17;30.30;54.50
22645;DHT22;11489;50.834;6.752;2022-07-23T15:22:43;30.40;54.60
22645;DHT22;11489;50.834;6.752;2022-07-23T15:25:11;30.50;54.50
22645;DHT22;11489;50.834;6.752;2022-07-23T15:27:36;30.50;53.90
22645;DHT22;11489;50.834;6.752;2022-07-23T15:30:03;30.50;53.70
22645;DHT22;11489;50.834;6.752;2022-07-23T15:32:29;30.40;52.10
22645;DHT22;11489;50.834;6.752;2022-07-23T15:34:55;30.20;50.70
22645;DHT22;11489;50.834;6.752;2022-07-23T15:37:21;30.00;51.20
22645;DHT22;11489;50.834;6.752;2022-07-23T15:39:49;29.80;51.80
22645;DHT22;11489;50.834;6.752;2022-07-23T15:42:15;29.70;52.40
22645;DHT22;11489;50.834;6.752;2022-07-23T15:44:41;29.50;52.00
22645;DHT22;11489;50.834;6.752;2022-07-23T15:47:13;29.40;51.90
22645;DHT22;11489;50.834;6.752;2022-07-23T15:49:39;29.30;51.40
22645;DHT22;11489;50.834;6.752;2022-07-23T15:52:05;29.20;52.60
22645;DHT22;11489;50.834;6.752;2022-07-23T15:54:30;29.10;53.10
22645;DHT22;11489;50.834;6.752;2022-07-23T15:56:56;29.00;52.40
22645;DHT22;11489;50.834;6.752;2022-07-23T15:59:22;28.90;52.60
22645;DHT22;11489;50.834;6.752;2022-07-23T16:01:48;28.90;52.20
22645;DHT22;11489;50.834;6.752;2022-07-23T16:04:14;28.80;52.30
22645;DHT22;11489;50.834;6.752;2022-07-23T16:06:40;28.70;52.40
22645;DHT22;11489;50.834;6.752;2022-07-23T16:09:07;28.70;52.90
22645;DHT22;11489;50.834;6.752;2022-07-23T16:11:33;28.70;52.50
22645;DHT22;11489;50.834;6.752;2022-07-23T16:13:59;28.60;52.10